createdAt,value
2022-08-23T00:00:33.398Z,99470.97
2022-08-23T00:04:39.929Z,99470.88
2022-08-23T00:09:03.695Z,99473.41
2022-08-23T00:13:07.094Z,99467.19
2022-08-23T00:17:13.049Z,99470.03
2022-08-23T00:21:36.785Z,99472.81
2022-08-23T00:25:39.828Z,99470.19
2022-08-23T00:29:45.187Z,99472.88
2022-08-23T00:33:49.637Z,99476.50
2022-08-23T00:38:31.627Z,99469.44
2022-08-23T00:42:47.727Z,99465.03
2022-08-23T00:47:12.632Z,99464.09
2022-08-23T00:51:22.237Z,99460.53
2022-08-23T00:55:26.375Z,99465.75
2022-08-23T00:59:30.196Z,99456.03
2022-08-23T01:03:38.785Z,99452.53
2022-08-23T01:07:49.815Z,99452.63
2022-08-23T01:12:02.442Z,99460.59
2022-08-23T01:16:11.036Z,99457.13
2022-08-23T01:20:18.430Z,99457.13
2022-08-23T01:24:34.600Z,99458.97
2022-08-23T01:28:46.965Z,99454.47
2022-08-23T01:32:53.387Z,99455.38
2022-08-23T01:36:57.695Z,99451.16
2022-08-23T01:41:04.412Z,99455.66
2022-08-23T01:45:09.355Z,99458.28
2022-08-23T01:49:13.484Z,99455.59
2022-08-23T01:53:17.734Z,99462.69
2022-08-23T01:57:25.657Z,99462.78
2022-08-23T02:01:30.234Z,99467.19
2022-08-23T02:05:34.910Z,99464.56
2022-08-23T02:09:38.329Z,99464.66
2022-08-23T02:13:43.934Z,99469.97
2022-08-23T02:17:48.740Z,99468.28
2022-08-23T02:21:52.742Z,99478.94
2022-08-23T02:25:57.851Z,99478.81
2022-08-23T02:30:02.879Z,99484.13
2022-08-23T02:34:07.241Z,99490.34
2022-08-23T02:38:13.664Z,99480.59
2022-08-23T02:42:17.815Z,99485.00
2022-08-23T02:46:23.083Z,99480.59
2022-08-23T02:50:28.057Z,99488.66
2022-08-23T02:54:31.168Z,99491.31
2022-08-23T02:58:34.568Z,99493.06
2022-08-23T03:02:40.592Z,99498.38
2022-08-23T03:06:43.839Z,99503.59
2022-08-23T03:10:49.073Z,99504.38
2022-08-23T03:14:52.203Z,99491.06
2022-08-23T03:18:57.664Z,99493.72
2022-08-23T03:23:01.000Z,99507.00
2022-08-23T03:27:05.087Z,99501.78
2022-08-23T03:31:10.299Z,99504.38
2022-08-23T03:35:24.778Z,99502.59
2022-08-23T03:39:28.814Z,99499.94
2022-08-23T03:43:34.512Z,99503.44
2022-08-23T03:47:38.114Z,99499.94
2022-08-23T03:51:42.632Z,99505.22
2022-08-23T03:55:46.542Z,99505.25
2022-08-23T03:59:53.134Z,99508.84
2022-08-23T04:03:59.300Z,99511.47
2022-08-23T04:08:10.647Z,99515.91
2022-08-23T04:12:17.594Z,99516.84
2022-08-23T04:16:21.411Z,99526.53
2022-08-23T04:20:25.151Z,99524.72
2022-08-23T04:24:34.265Z,99528.28
2022-08-23T04:28:38.277Z,99526.53
2022-08-23T04:32:41.596Z,99528.28
2022-08-23T04:36:51.690Z,99533.53
2022-08-23T04:41:16.113Z,99532.56
2022-08-23T04:45:21.902Z,99531.69
2022-08-23T04:49:28.552Z,99544.09
2022-08-23T04:53:35.258Z,99536.94
2022-08-23T04:58:03.113Z,99532.38
2022-08-23T05:02:10.960Z,99548.28
2022-08-23T05:06:14.950Z,99554.47
2022-08-23T05:10:18.399Z,99554.47
2022-08-23T05:14:27.443Z,99557.06
2022-08-23T05:18:31.716Z,99567.66
2022-08-23T05:22:35.807Z,99559.63
2022-08-23T05:27:02.869Z,99571.06
2022-08-23T05:31:11.533Z,99583.41
2022-08-23T05:35:28.150Z,99583.41
2022-08-23T05:39:36.622Z,99581.56
2022-08-23T05:43:45.851Z,99592.09
2022-08-23T05:47:50.590Z,99592.94
2022-08-23T05:52:00.466Z,99600.94
2022-08-23T05:56:13.908Z,99597.38
2022-08-23T06:00:17.820Z,99594.63
2022-08-23T06:04:31.105Z,99596.34
2022-08-23T06:08:35.830Z,99596.34
2022-08-23T06:12:39.139Z,99604.28
2022-08-23T06:16:44.178Z,99605.28
2022-08-23T06:20:50.564Z,99607.97
2022-08-23T06:25:09.502Z,99602.72
2022-08-23T06:29:27.735Z,99607.19
2022-08-23T06:33:50.155Z,99610.72
2022-08-23T06:38:18.481Z,99614.25
2022-08-23T06:42:40.469Z,99614.25
2022-08-23T06:46:46.864Z,99611.56
2022-08-23T06:50:51.013Z,99612.41
2022-08-23T06:55:18.041Z,99610.47
2022-08-23T06:59:35.561Z,99611.22
2022-08-23T07:04:12.763Z,99619.09
2022-08-23T07:08:36.455Z,99611.84
2022-08-23T07:12:43.350Z,99617.81
2022-08-23T07:16:49.975Z,99618.47
2022-08-23T07:20:57.201Z,99625.44
2022-08-23T07:25:00.647Z,99619.81
2022-08-23T07:29:09.535Z,99624.00
2022-08-23T07:33:12.950Z,99622.06
2022-08-23T07:37:37.787Z,99621.22
2022-08-23T07:41:43.424Z,99630.03
2022-08-23T07:45:50.016Z,99631.75
2022-08-23T07:49:53.806Z,99633.31
2022-08-23T07:53:57.675Z,99639.31
2022-08-23T07:58:01.387Z,99629.25
2022-08-23T08:02:16.151Z,99633.41
2022-08-23T08:06:23.060Z,99643.63
2022-08-23T08:10:27.494Z,99635.47
2022-08-23T08:14:30.749Z,99639.78
2022-08-23T08:18:38.977Z,99654.75
2022-08-23T08:23:11.526Z,99664.50
2022-08-23T08:27:41.416Z,99670.75
2022-08-23T08:31:49.503Z,99679.69
2022-08-23T08:36:03.262Z,99693.94
2022-08-23T08:40:12.230Z,99686.88
2022-08-23T08:44:33.110Z,99698.41
2022-08-23T08:48:43.260Z,99704.59
2022-08-23T08:52:52.753Z,99711.69
2022-08-23T08:57:16.213Z,99720.59
2022-08-23T09:01:23.815Z,99719.78
2022-08-23T09:05:31.842Z,99720.69
2022-08-23T09:09:53.700Z,99724.31
2022-08-23T09:14:19.359Z,99720.81
2022-08-23T09:18:24.302Z,99725.31
2022-08-23T09:22:35.605Z,99729.81
2022-08-23T09:26:46.242Z,99731.56
2022-08-23T09:30:52.953Z,99738.63
2022-08-23T09:35:09.595Z,99738.56
2022-08-23T09:39:30.737Z,99742.94
2022-08-23T09:43:48.328Z,99740.13
2022-08-23T09:47:53.819Z,99748.06
2022-08-23T09:52:03.453Z,99747.91
2022-08-23T09:56:19.616Z,99749.47
2022-08-23T10:00:28.846Z,99760.88
2022-08-23T10:04:42.593Z,99765.16
2022-08-23T10:08:54.159Z,99756.88
2022-08-23T10:13:00.464Z,99761.72
2022-08-23T10:17:14.080Z,99765.66
2022-08-23T10:21:24.243Z,99769.00
2022-08-23T10:25:38.058Z,99770.72
2022-08-23T10:29:48.907Z,99769.75
2022-08-23T10:34:07.721Z,99759.75
2022-08-23T10:38:36.107Z,99758.63
2022-08-23T10:42:49.836Z,99755.81
2022-08-23T10:47:03.591Z,99770.75
2022-08-23T10:51:12.757Z,99764.22
2022-08-23T10:55:35.294Z,99763.81
2022-08-23T10:59:41.393Z,99760.69
2022-08-23T11:03:48.590Z,99767.97
2022-08-23T11:08:03.052Z,99769.56
2022-08-23T11:12:24.047Z,99763.16
2022-08-23T11:16:32.234Z,99761.91
2022-08-23T11:21:06.934Z,99764.78
2022-08-23T11:25:44.202Z,99756.03
2022-08-23T11:29:47.702Z,99758.75
2022-08-23T11:34:20.884Z,99761.53
2022-08-23T11:39:07.235Z,99763.28
2022-08-23T11:43:27.442Z,99757.69
2022-08-23T11:47:41.520Z,99761.53
2022-08-23T11:51:51.283Z,99762.06
2022-08-23T11:56:11.375Z,99759.81
2022-08-23T12:00:26.048Z,99763.03
2022-08-23T12:04:37.568Z,99775.22
2022-08-23T12:08:56.854Z,99771.50
2022-08-23T12:13:30.572Z,99771.91
2022-08-23T12:18:08.038Z,99773.16
2022-08-23T12:22:15.686Z,99770.00
2022-08-23T12:26:28.623Z,99781.47
2022-08-23T12:30:39.792Z,99777.41
2022-08-23T12:35:07.388Z,99782.16
2022-08-23T12:39:23.336Z,99782.41
2022-08-23T12:43:29.282Z,99782.69
2022-08-23T12:47:33.164Z,99772.75
2022-08-23T12:51:43.461Z,99781.28
2022-08-23T12:55:51.015Z,99787.50
2022-08-23T13:00:16.589Z,99789.16
2022-08-23T13:04:21.093Z,99790.19
2022-08-23T13:08:34.128Z,99789.22
2022-08-23T13:12:38.484Z,99791.00
2022-08-23T13:16:44.792Z,99781.06
2022-08-23T13:20:48.071Z,99789.09
2022-08-23T13:25:27.398Z,99775.19
2022-08-23T13:29:29.527Z,99782.56
2022-08-23T13:33:32.714Z,99784.28
2022-08-23T13:37:36.065Z,99787.91
2022-08-23T13:41:44.849Z,99786.16
2022-08-23T13:45:50.310Z,99784.22
2022-08-23T13:49:54.544Z,99788.44
2022-08-23T13:54:01.306Z,99789.09
2022-08-23T13:58:11.563Z,99788.19
2022-08-23T14:02:17.662Z,99778.38
2022-08-23T14:06:21.106Z,99780.25
2022-08-23T14:10:24.521Z,99785.63
2022-08-23T14:14:32.959Z,99789.16
2022-08-23T14:18:36.519Z,99788.97
2022-08-23T14:22:40.418Z,99793.41
2022-08-23T14:26:50.257Z,99797.22
2022-08-23T14:30:57.834Z,99804.00
2022-08-23T14:35:00.987Z,99801.56
2022-08-23T14:39:04.835Z,99811.72
2022-08-23T14:43:07.998Z,99809.28
2022-08-23T14:47:12.698Z,99810.38
2022-08-23T14:51:26.319Z,99812.94
2022-08-23T14:55:29.567Z,99803.91
2022-08-23T14:59:32.875Z,99814.34
2022-08-23T15:03:37.508Z,99811.53
2022-08-23T15:07:40.724Z,99816.84
2022-08-23T15:16:09.023Z,99807.94
2022-08-23T15:20:19.603Z,99812.28
2022-08-23T15:24:23.450Z,99808.59
2022-08-23T15:28:26.803Z,99806.13
2022-08-23T15:32:29.942Z,99813.38
2022-08-23T15:36:42.490Z,99809.00
2022-08-23T15:40:45.615Z,99807.63
2022-08-23T15:44:49.420Z,99796.41
2022-08-23T15:48:57.541Z,99797.72
2022-08-23T15:53:02.344Z,99801.38
2022-08-23T15:57:06.327Z,99801.47
2022-08-23T16:01:09.749Z,99799.75
2022-08-23T16:05:13.821Z,99804.44
2022-08-23T16:09:21.694Z,99810.81
2022-08-23T16:13:26.462Z,99794.84
2022-08-23T16:17:29.813Z,99797.59
2022-08-23T16:21:33.226Z,99800.53
2022-08-23T16:25:38.383Z,99807.19
2022-08-23T16:29:42.013Z,99794.91
2022-08-23T16:33:45.282Z,99798.47
2022-08-23T16:37:48.444Z,99797.72
2022-08-23T16:41:53.039Z,99797.72
2022-08-23T16:45:56.643Z,99798.59
2022-08-23T16:50:00.204Z,99806.53
2022-08-23T16:54:03.740Z,99813.75
2022-08-23T16:58:08.908Z,99811.34
2022-08-23T17:02:26.822Z,99815.19
2022-08-23T17:06:30.207Z,99828.75
2022-08-23T17:10:33.798Z,99827.88
2022-08-23T17:14:38.676Z,99821.63
2022-08-23T17:18:42.703Z,99838.69
2022-08-23T17:22:47.283Z,99842.41
2022-08-23T17:26:51.252Z,99838.00
2022-08-23T17:30:56.058Z,99844.41
2022-08-23T17:35:00.012Z,99848.19
2022-08-23T17:39:06.187Z,99850.19
2022-08-23T17:43:09.832Z,99861.13
2022-08-23T17:47:17.590Z,99850.53
2022-08-23T17:51:20.800Z,99857.72
2022-08-23T17:55:24.099Z,99860.34
2022-08-23T17:59:28.602Z,99862.03
2022-08-23T18:03:33.254Z,99866.56
2022-08-23T18:07:36.369Z,99864.81
2022-08-23T18:11:39.564Z,99875.59
2022-08-23T18:15:42.644Z,99872.91
2022-08-23T18:19:47.235Z,99881.75
2022-08-23T18:23:50.725Z,99876.31
2022-08-23T18:28:09.996Z,99886.91
2022-08-23T18:32:13.566Z,99894.03
2022-08-23T18:36:18.211Z,99885.09
2022-08-23T18:40:21.993Z,99889.47
2022-08-23T18:44:25.284Z,99892.22
2022-08-23T18:48:28.540Z,99901.13
2022-08-23T18:52:33.413Z,99909.25
2022-08-23T18:56:36.748Z,99927.38
2022-08-23T19:00:41.828Z,99922.09
2022-08-23T19:04:46.143Z,99938.31
2022-08-23T19:08:51.699Z,99935.69
2022-08-23T19:12:55.208Z,99941.94
2022-08-23T19:16:58.560Z,99946.44
2022-08-23T19:21:05.673Z,99935.78
2022-08-23T19:25:10.782Z,99942.97
2022-08-23T19:29:16.070Z,99942.97
2022-08-23T19:33:19.429Z,99943.09
2022-08-23T19:37:22.964Z,99936.09
2022-08-23T19:41:27.986Z,99938.06
2022-08-23T19:45:32.141Z,99944.31
2022-08-23T19:49:36.220Z,99940.91
2022-08-23T19:53:40.023Z,99950.75
2022-08-23T19:57:44.878Z,99958.72
2022-08-23T20:01:48.359Z,99955.22
2022-08-23T20:05:52.858Z,99964.16
2022-08-23T20:09:56.160Z,99964.16
2022-08-23T20:14:01.233Z,99964.25
2022-08-23T20:18:04.737Z,99959.00
2022-08-23T20:22:24.509Z,99952.84
2022-08-23T20:26:29.044Z,99952.84
2022-08-23T20:30:35.228Z,99953.78
2022-08-23T20:34:38.962Z,99952.06
2022-08-23T20:38:45.458Z,99950.25
2022-08-23T20:42:48.950Z,99949.41
2022-08-23T20:46:55.986Z,99963.56
2022-08-23T20:51:02.095Z,99968.06
2022-08-23T20:55:10.572Z,99964.47
2022-08-23T20:59:14.759Z,99954.59
2022-08-23T21:03:19.945Z,99959.13
2022-08-23T21:07:23.400Z,99966.19
2022-08-23T21:11:28.549Z,99973.31
2022-08-23T21:15:32.612Z,99977.63
2022-08-23T21:19:38.283Z,99978.44
2022-08-23T21:23:42.166Z,99969.50
2022-08-23T21:27:45.595Z,99957.00
2022-08-23T21:31:48.728Z,99952.47
2022-08-23T21:35:53.681Z,99969.41
2022-08-23T21:39:56.954Z,99951.50
2022-08-23T21:44:00.559Z,99953.38
2022-08-23T21:48:04.220Z,99952.47
2022-08-23T21:52:08.865Z,99958.63
2022-08-23T21:56:12.020Z,99954.19
2022-08-23T22:00:17.029Z,99967.66
2022-08-23T22:04:20.322Z,99965.91
2022-08-23T22:08:24.964Z,99956.97
2022-08-23T22:12:28.681Z,99946.25
2022-08-23T22:16:32.308Z,99939.19
2022-08-23T22:20:46.762Z,99932.91
2022-08-23T22:24:51.498Z,99939.19
2022-08-23T22:28:54.597Z,99948.13
2022-08-23T22:32:57.694Z,99945.44
2022-08-23T22:37:00.747Z,99946.44
2022-08-23T22:41:06.443Z,99950.88
2022-08-23T22:45:10.558Z,99941.16
2022-08-23T22:49:13.876Z,99936.75
2022-08-23T22:53:18.067Z,99938.56
2022-08-23T22:57:22.517Z,99938.56
2022-08-23T23:01:27.850Z,99934.13
2022-08-23T23:05:34.193Z,99939.53
2022-08-23T23:09:37.233Z,99942.19
2022-08-23T23:13:42.362Z,99938.59
2022-08-23T23:17:45.454Z,99926.94
2022-08-23T23:21:52.108Z,99928.69
2022-08-23T23:25:55.506Z,99937.63
2022-08-23T23:29:59.955Z,99925.09
2022-08-23T23:34:03.169Z,99918.00
2022-08-23T23:38:07.025Z,99931.31
2022-08-23T23:42:10.266Z,99921.50
2022-08-23T23:46:17.412Z,99919.75
2022-08-23T23:50:21.008Z,99922.44
2022-08-23T23:54:24.218Z,99917.09
2022-08-23T23:58:27.704Z,99910.81
